createdAt,value
2022-12-25T16:29:25.969Z,100791.03
2022-12-25T16:32:30.348Z,100776.66
2022-12-25T16:35:34.801Z,100778.31
2022-12-25T16:38:38.619Z,100763.06
2022-12-25T16:41:42.439Z,100764.56
2022-12-25T16:44:47.635Z,100753.13
2022-12-25T16:47:51.594Z,100739.84
2022-12-25T16:50:55.411Z,100737.66
2022-12-25T16:53:59.228Z,100737.63
2022-12-25T16:57:03.127Z,100727.88
2022-12-25T17:00:10.262Z,100726.31
2022-12-25T17:03:14.250Z,100720.47
2022-12-25T17:06:20.629Z,100713.25
2022-12-25T17:09:24.832Z,100712.78
2022-12-25T17:12:28.797Z,100710.44
2022-12-25T17:15:34.123Z,100703.09
2022-12-25T17:18:38.284Z,100697.97
2022-12-25T17:21:42.181Z,100699.09
2022-12-25T17:24:46.122Z,100692.06
2022-12-25T17:27:50.627Z,100683.50
2022-12-25T17:30:55.947Z,100679.50
2022-12-25T17:34:01.690Z,100679.50
2022-12-25T17:37:05.727Z,100676.59
2022-12-25T17:40:10.730Z,100669.69
2022-12-25T17:43:20.537Z,100669.31
2022-12-25T17:46:27.961Z,100673.09
2022-12-25T17:49:31.823Z,100672.31
2022-12-25T17:52:35.673Z,100675.38
2022-12-25T17:55:41.256Z,100681.34
2022-12-25T17:58:45.899Z,100679.72
2022-12-25T18:01:51.181Z,100669.59
2022-12-25T18:04:55.087Z,100651.47
2022-12-25T18:07:59.029Z,100647.16
2022-12-25T18:11:05.783Z,100642.88
2022-12-25T18:14:12.538Z,100629.81
2022-12-25T18:17:17.709Z,100619.34
2022-12-25T18:20:21.761Z,100615.41
2022-12-25T18:23:25.978Z,100605.47
2022-12-25T18:26:29.858Z,100599.22
2022-12-25T18:29:33.669Z,100598.94
2022-12-25T18:32:39.275Z,100596.94
2022-12-25T18:35:44.489Z,100592.91
2022-12-25T18:38:48.684Z,100584.31
2022-12-25T18:42:09.673Z,100574.31
2022-12-25T18:45:15.859Z,100575.59
2022-12-25T18:48:22.977Z,100573.09
2022-12-25T18:51:33.119Z,100569.72
2022-12-25T18:54:40.301Z,100566.75
2022-12-25T18:57:44.121Z,100557.50
2022-12-25T19:00:47.936Z,100555.75
2022-12-25T19:04:00.203Z,100548.53
2022-12-25T19:07:07.881Z,100542.34
2022-12-25T19:10:11.913Z,100534.81
2022-12-25T19:13:15.725Z,100515.97
2022-12-25T19:16:19.682Z,100521.81
2022-12-25T19:19:25.528Z,100515.47
2022-12-25T19:22:29.442Z,100514.63
2022-12-25T19:25:33.254Z,100512.59
2022-12-25T19:28:37.688Z,100513.03
2022-12-25T19:31:41.835Z,100516.16
2022-12-25T19:34:47.189Z,100499.72
2022-12-25T19:37:51.064Z,100492.41
2022-12-25T19:41:03.936Z,100481.84
2022-12-25T19:44:08.080Z,100489.28
2022-12-25T19:47:12.178Z,100483.94
2022-12-25T19:50:17.534Z,100473.63
2022-12-25T19:53:23.745Z,100474.69
2022-12-25T19:56:29.029Z,100483.38
2022-12-25T19:59:32.893Z,100473.09
2022-12-25T20:02:36.817Z,100473.50
2022-12-25T20:05:45.593Z,100464.22
2022-12-25T20:08:52.497Z,100470.56
2022-12-25T20:11:56.597Z,100470.56
2022-12-25T20:15:00.765Z,100474.00
2022-12-25T20:18:04.861Z,100471.25
2022-12-25T20:21:14.156Z,100474.84
2022-12-25T20:24:18.241Z,100464.72
2022-12-25T20:27:22.085Z,100461.59
2022-12-25T20:30:25.893Z,100466.63
2022-12-25T20:33:29.701Z,100456.13
2022-12-25T20:36:37.764Z,100451.28
2022-12-25T20:39:42.401Z,100447.06
2022-12-25T20:42:47.159Z,100441.59
2022-12-25T20:45:52.849Z,100453.13
2022-12-25T20:48:57.121Z,100454.19
2022-12-25T20:52:05.558Z,100455.88
2022-12-25T20:55:10.156Z,100445.94
2022-12-25T20:58:14.552Z,100444.94
2022-12-25T21:01:19.007Z,100449.31
2022-12-25T21:04:23.240Z,100450.41
2022-12-25T21:07:28.616Z,100456.94
2022-12-25T21:10:32.465Z,100458.00
2022-12-25T21:13:38.196Z,100454.00
2022-12-25T21:16:43.993Z,100448.97
2022-12-25T21:19:48.139Z,100437.81
2022-12-25T21:22:53.686Z,100452.13
2022-12-25T21:25:57.833Z,100455.50
2022-12-25T21:29:03.359Z,100448.75
2022-12-25T21:32:25.319Z,100437.38
2022-12-25T21:35:29.301Z,100449.63
2022-12-25T21:38:34.776Z,100443.94
2022-12-25T21:41:39.878Z,100453.81
2022-12-25T21:44:43.759Z,100466.03
2022-12-25T21:48:02.156Z,100466.03
2022-12-25T21:51:26.895Z,100461.38
2022-12-25T21:54:32.148Z,100456.75
2022-12-25T21:57:35.937Z,100451.06
2022-12-25T22:00:39.748Z,100446.22
2022-12-25T22:03:43.667Z,100453.38
2022-12-25T22:07:05.317Z,100454.66
2022-12-25T22:10:10.754Z,100448.75
2022-12-25T22:13:31.968Z,100454.00
2022-12-25T22:16:53.144Z,100450.88
2022-12-25T22:19:57.616Z,100455.28
2022-12-25T22:23:01.727Z,100445.41
2022-12-25T22:26:07.809Z,100445.19
2022-12-25T22:29:12.270Z,100447.06
2022-12-25T22:32:17.103Z,100442.84
2022-12-25T22:35:21.609Z,100446.25
2022-12-25T22:38:25.392Z,100447.50
2022-12-25T22:41:33.636Z,100438.22
2022-12-25T22:44:37.906Z,100449.41
2022-12-25T22:47:41.748Z,100447.50
2022-12-25T22:50:45.493Z,100459.91
2022-12-25T22:53:50.121Z,100455.50
2022-12-25T23:07:16.296Z,100460.13
2022-12-25T23:10:20.244Z,100459.72
